sensor_id;sensor_type;location;lat;lon;timestamp;P1;durP1;ratioP1;P2;durP2;ratioP2
44508;SDS011;30214;52.246;14.408;2023-07-13T00:01:59;6.53;;;2.90;;
44508;SDS011;30214;52.246;14.408;2023-07-13T00:04:28;7.60;;;2.70;;
44508;SDS011;30214;52.246;14.408;2023-07-13T00:06:57;4.03;;;2.85;;
44508;SDS011;30214;52.246;14.408;2023-07-13T00:09:25;3.83;;;2.60;;
44508;SDS011;30214;52.246;14.408;2023-07-13T00:11:53;6.40;;;2.72;;
44508;SDS011;30214;52.246;14.408;2023-07-13T00:14:22;3.80;;;2.95;;
44508;SDS011;30214;52.246;14.408;2023-07-13T00:16:50;6.80;;;2.70;;
44508;SDS011;30214;52.246;14.408;2023-07-13T00:19:17;4.88;;;2.60;;
44508;SDS011;30214;52.246;14.408;2023-07-13T00:21:52;4.80;;;3.10;;
44508;SDS011;30214;52.246;14.408;2023-07-13T00:24:22;4.23;;;3.20;;
44508;SDS011;30214;52.246;14.408;2023-07-13T00:26:51;4.57;;;3.20;;
44508;SDS011;30214;52.246;14.408;2023-07-13T00:29:18;6.30;;;3.00;;
44508;SDS011;30214;52.246;14.408;2023-07-13T00:31:46;4.38;;;2.90;;
44508;SDS011;30214;52.246;14.408;2023-07-13T00:34:15;3.60;;;2.60;;
44508;SDS011;30214;52.246;14.408;2023-07-13T00:36:43;6.15;;;3.00;;
44508;SDS011;30214;52.246;14.408;2023-07-13T00:39:15;5.53;;;2.55;;
44508;SDS011;30214;52.246;14.408;2023-07-13T00:41:48;3.75;;;2.75;;
44508;SDS011;30214;52.246;14.408;2023-07-13T00:44:20;3.60;;;2.80;;
44508;SDS011;30214;52.246;14.408;2023-07-13T00:46:48;5.55;;;3.10;;
44508;SDS011;30214;52.246;14.408;2023-07-13T00:49:17;4.90;;;3.00;;
44508;SDS011;30214;52.246;14.408;2023-07-13T00:51:47;5.32;;;3.10;;
44508;SDS011;30214;52.246;14.408;2023-07-13T00:54:19;3.25;;;2.75;;
44508;SDS011;30214;52.246;14.408;2023-07-13T00:56:51;6.43;;;2.78;;
44508;SDS011;30214;52.246;14.408;2023-07-13T00:59:25;4.35;;;2.78;;
44508;SDS011;30214;52.246;14.408;2023-07-13T01:01:53;4.13;;;3.17;;
44508;SDS011;30214;52.246;14.408;2023-07-13T01:04:20;3.90;;;2.85;;
44508;SDS011;30214;52.246;14.408;2023-07-13T01:06:51;5.55;;;2.88;;
44508;SDS011;30214;52.246;14.408;2023-07-13T01:09:20;3.38;;;2.78;;
44508;SDS011;30214;52.246;14.408;2023-07-13T01:11:52;5.20;;;2.88;;
44508;SDS011;30214;52.246;14.408;2023-07-13T01:14:19;4.95;;;2.67;;
44508;SDS011;30214;52.246;14.408;2023-07-13T01:16:50;5.03;;;2.80;;
44508;SDS011;30214;52.246;14.408;2023-07-13T01:19:21;6.32;;;3.08;;
44508;SDS011;30214;52.246;14.408;2023-07-13T01:22:03;5.55;;;2.95;;
44508;SDS011;30214;52.246;14.408;2023-07-13T01:24:34;4.45;;;2.78;;
44508;SDS011;30214;52.246;14.408;2023-07-13T01:27:02;5.30;;;3.10;;
44508;SDS011;30214;52.246;14.408;2023-07-13T01:29:31;4.25;;;2.78;;
44508;SDS011;30214;52.246;14.408;2023-07-13T01:32:00;5.18;;;2.78;;
44508;SDS011;30214;52.246;14.408;2023-07-13T01:34:29;4.38;;;2.88;;
44508;SDS011;30214;52.246;14.408;2023-07-13T01:36:58;4.55;;;3.00;;
44508;SDS011;30214;52.246;14.408;2023-07-13T01:39:28;5.18;;;3.40;;
44508;SDS011;30214;52.246;14.408;2023-07-13T01:41:56;5.15;;;3.00;;
44508;SDS011;30214;52.246;14.408;2023-07-13T01:44:24;5.72;;;3.22;;
44508;SDS011;30214;52.246;14.408;2023-07-13T01:46:52;4.35;;;3.13;;
44508;SDS011;30214;52.246;14.408;2023-07-13T01:49:20;4.20;;;3.00;;
44508;SDS011;30214;52.246;14.408;2023-07-13T01:51:49;4.88;;;3.00;;
44508;SDS011;30214;52.246;14.408;2023-07-13T01:54:19;4.53;;;3.20;;
44508;SDS011;30214;52.246;14.408;2023-07-13T01:56:51;3.80;;;2.90;;
44508;SDS011;30214;52.246;14.408;2023-07-13T01:59:21;3.90;;;3.00;;
44508;SDS011;30214;52.246;14.408;2023-07-13T02:01:51;8.98;;;3.28;;
44508;SDS011;30214;52.246;14.408;2023-07-13T02:04:19;4.70;;;3.58;;
44508;SDS011;30214;52.246;14.408;2023-07-13T02:06:48;4.72;;;3.33;;
44508;SDS011;30214;52.246;14.408;2023-07-13T02:09:15;5.10;;;3.58;;
44508;SDS011;30214;52.246;14.408;2023-07-13T02:11:42;4.70;;;3.28;;
44508;SDS011;30214;52.246;14.408;2023-07-13T02:14:15;6.13;;;3.58;;
44508;SDS011;30214;52.246;14.408;2023-07-13T02:16:45;5.57;;;3.92;;
44508;SDS011;30214;52.246;14.408;2023-07-13T02:19:13;7.47;;;3.92;;
44508;SDS011;30214;52.246;14.408;2023-07-13T02:21:42;8.88;;;4.25;;
44508;SDS011;30214;52.246;14.408;2023-07-13T02:24:12;4.70;;;3.90;;
44508;SDS011;30214;52.246;14.408;2023-07-13T02:26:45;5.85;;;3.70;;
44508;SDS011;30214;52.246;14.408;2023-07-13T02:29:19;5.88;;;3.50;;
44508;SDS011;30214;52.246;14.408;2023-07-13T02:31:52;6.28;;;3.47;;
44508;SDS011;30214;52.246;14.408;2023-07-13T02:34:45;5.63;;;3.35;;
44508;SDS011;30214;52.246;14.408;2023-07-13T02:37:14;4.97;;;3.40;;
44508;SDS011;30214;52.246;14.408;2023-07-13T02:39:42;5.40;;;3.20;;
44508;SDS011;30214;52.246;14.408;2023-07-13T02:42:09;5.72;;;3.38;;
44508;SDS011;30214;52.246;14.408;2023-07-13T02:44:41;4.78;;;3.33;;
44508;SDS011;30214;52.246;14.408;2023-07-13T02:47:09;5.22;;;3.47;;
44508;SDS011;30214;52.246;14.408;2023-07-13T02:49:38;5.70;;;3.50;;
44508;SDS011;30214;52.246;14.408;2023-07-13T02:52:05;6.57;;;3.50;;
44508;SDS011;30214;52.246;14.408;2023-07-13T02:54:33;6.43;;;3.83;;
44508;SDS011;30214;52.246;14.408;2023-07-13T02:57:00;5.93;;;2.90;;
44508;SDS011;30214;52.246;14.408;2023-07-13T02:59:30;6.68;;;3.50;;
44508;SDS011;30214;52.246;14.408;2023-07-13T03:02:00;4.13;;;3.13;;
44508;SDS011;30214;52.246;14.408;2023-07-13T03:04:28;5.47;;;3.38;;
44508;SDS011;30214;52.246;14.408;2023-07-13T03:06:55;7.57;;;3.50;;
44508;SDS011;30214;52.246;14.408;2023-07-13T03:09:33;6.20;;;3.38;;
44508;SDS011;30214;52.246;14.408;2023-07-13T03:12:02;5.95;;;3.63;;
44508;SDS011;30214;52.246;14.408;2023-07-13T03:14:32;7.32;;;3.47;;
44508;SDS011;30214;52.246;14.408;2023-07-13T03:17:04;7.38;;;3.53;;
44508;SDS011;30214;52.246;14.408;2023-07-13T03:19:34;7.18;;;4.32;;
44508;SDS011;30214;52.246;14.408;2023-07-13T03:22:03;4.85;;;3.33;;
44508;SDS011;30214;52.246;14.408;2023-07-13T03:24:37;5.20;;;3.63;;
44508;SDS011;30214;52.246;14.408;2023-07-13T03:27:06;4.35;;;3.28;;
44508;SDS011;30214;52.246;14.408;2023-07-13T03:29:39;4.45;;;3.63;;
44508;SDS011;30214;52.246;14.408;2023-07-13T03:32:09;6.20;;;3.70;;
44508;SDS011;30214;52.246;14.408;2023-07-13T03:34:39;4.35;;;3.22;;
44508;SDS011;30214;52.246;14.408;2023-07-13T03:37:07;6.43;;;3.78;;
44508;SDS011;30214;52.246;14.408;2023-07-13T03:39:40;6.72;;;3.80;;
44508;SDS011;30214;52.246;14.408;2023-07-13T03:42:10;4.28;;;3.47;;
44508;SDS011;30214;52.246;14.408;2023-07-13T03:44:42;6.95;;;3.75;;
44508;SDS011;30214;52.246;14.408;2023-07-13T03:47:15;7.78;;;3.60;;
44508;SDS011;30214;52.246;14.408;2023-07-13T03:49:43;10.27;;;4.40;;
44508;SDS011;30214;52.246;14.408;2023-07-13T03:52:12;6.85;;;5.25;;
44508;SDS011;30214;52.246;14.408;2023-07-13T03:54:41;5.65;;;3.50;;
44508;SDS011;30214;52.246;14.408;2023-07-13T03:57:08;4.85;;;3.60;;
44508;SDS011;30214;52.246;14.408;2023-07-13T03:59:39;6.20;;;3.88;;
44508;SDS011;30214;52.246;14.408;2023-07-13T04:02:07;7.22;;;3.95;;
44508;SDS011;30214;52.246;14.408;2023-07-13T04:04:38;6.38;;;3.80;;
44508;SDS011;30214;52.246;14.408;2023-07-13T04:07:06;6.30;;;4.18;;
44508;SDS011;30214;52.246;14.408;2023-07-13T04:09:37;6.22;;;4.40;;
44508;SDS011;30214;52.246;14.408;2023-07-13T04:12:04;11.02;;;3.92;;
44508;SDS011;30214;52.246;14.408;2023-07-13T04:14:32;7.43;;;4.40;;
44508;SDS011;30214;52.246;14.408;2023-07-13T04:16:59;8.02;;;3.85;;
44508;SDS011;30214;52.246;14.408;2023-07-13T04:19:26;4.82;;;3.95;;
44508;SDS011;30214;52.246;14.408;2023-07-13T04:21:55;5.50;;;3.95;;
44508;SDS011;30214;52.246;14.408;2023-07-13T04:24:22;5.50;;;4.30;;
44508;SDS011;30214;52.246;14.408;2023-07-13T04:26:48;6.57;;;3.95;;
44508;SDS011;30214;52.246;14.408;2023-07-13T04:29:15;6.43;;;4.43;;
44508;SDS011;30214;52.246;14.408;2023-07-13T04:31:42;11.63;;;4.30;;
44508;SDS011;30214;52.246;14.408;2023-07-13T04:34:09;11.75;;;5.30;;
44508;SDS011;30214;52.246;14.408;2023-07-13T04:36:36;10.27;;;4.30;;
44508;SDS011;30214;52.246;14.408;2023-07-13T04:39:05;10.40;;;4.35;;
44508;SDS011;30214;52.246;14.408;2023-07-13T04:41:32;9.77;;;4.35;;
44508;SDS011;30214;52.246;14.408;2023-07-13T04:44:02;9.00;;;4.50;;
44508;SDS011;30214;52.246;14.408;2023-07-13T04:46:30;5.78;;;4.20;;
44508;SDS011;30214;52.246;14.408;2023-07-13T04:48:57;7.10;;;4.28;;
44508;SDS011;30214;52.246;14.408;2023-07-13T04:51:24;8.32;;;4.22;;
44508;SDS011;30214;52.246;14.408;2023-07-13T04:53:51;7.15;;;3.92;;
44508;SDS011;30214;52.246;14.408;2023-07-13T04:56:20;6.70;;;3.85;;
44508;SDS011;30214;52.246;14.408;2023-07-13T04:58:47;8.32;;;3.75;;
44508;SDS011;30214;52.246;14.408;2023-07-13T05:01:14;8.93;;;3.70;;
44508;SDS011;30214;52.246;14.408;2023-07-13T05:03:41;7.35;;;3.50;;
44508;SDS011;30214;52.246;14.408;2023-07-13T05:06:08;6.85;;;4.05;;
44508;SDS011;30214;52.246;14.408;2023-07-13T05:08:36;4.47;;;3.40;;
44508;SDS011;30214;52.246;14.408;2023-07-13T05:11:03;6.22;;;3.50;;
44508;SDS011;30214;52.246;14.408;2023-07-13T05:13:33;7.35;;;3.50;;
44508;SDS011;30214;52.246;14.408;2023-07-13T05:16:01;8.27;;;3.78;;
44508;SDS011;30214;52.246;14.408;2023-07-13T05:18:31;7.53;;;3.88;;
44508;SDS011;30214;52.246;14.408;2023-07-13T05:20:59;7.00;;;4.13;;
44508;SDS011;30214;52.246;14.408;2023-07-13T05:23:28;5.15;;;3.85;;
44508;SDS011;30214;52.246;14.408;2023-07-13T05:25:55;6.97;;;3.85;;
44508;SDS011;30214;52.246;14.408;2023-07-13T05:28:23;8.68;;;4.00;;
44508;SDS011;30214;52.246;14.408;2023-07-13T05:30:51;5.82;;;3.85;;
44508;SDS011;30214;52.246;14.408;2023-07-13T05:33:19;5.45;;;3.42;;
44508;SDS011;30214;52.246;14.408;2023-07-13T05:35:46;8.70;;;3.30;;
44508;SDS011;30214;52.246;14.408;2023-07-13T05:38:13;7.82;;;3.40;;
44508;SDS011;30214;52.246;14.408;2023-07-13T05:40:42;7.40;;;3.42;;
44508;SDS011;30214;52.246;14.408;2023-07-13T05:43:09;5.88;;;3.50;;
44508;SDS011;30214;52.246;14.408;2023-07-13T05:45:36;7.50;;;3.50;;
44508;SDS011;30214;52.246;14.408;2023-07-13T05:48:05;6.18;;;3.13;;
44508;SDS011;30214;52.246;14.408;2023-07-13T05:50:32;5.18;;;2.90;;
44508;SDS011;30214;52.246;14.408;2023-07-13T05:52:58;9.70;;;4.18;;
44508;SDS011;30214;52.246;14.408;2023-07-13T05:55:25;9.15;;;3.40;;
44508;SDS011;30214;52.246;14.408;2023-07-13T05:57:52;4.65;;;3.10;;
44508;SDS011;30214;52.246;14.408;2023-07-13T06:00:19;7.30;;;3.28;;
44508;SDS011;30214;52.246;14.408;2023-07-13T06:02:46;8.18;;;3.70;;
44508;SDS011;30214;52.246;14.408;2023-07-13T06:05:15;5.28;;;3.17;;
44508;SDS011;30214;52.246;14.408;2023-07-13T06:07:42;5.95;;;3.20;;
44508;SDS011;30214;52.246;14.408;2023-07-13T06:10:09;6.78;;;2.72;;
44508;SDS011;30214;52.246;14.408;2023-07-13T06:12:36;6.22;;;3.03;;
44508;SDS011;30214;52.246;14.408;2023-07-13T06:15:03;4.60;;;2.40;;
44508;SDS011;30214;52.246;14.408;2023-07-13T06:17:31;2.95;;;1.73;;
44508;SDS011;30214;52.246;14.408;2023-07-13T06:19:58;4.55;;;1.67;;
44508;SDS011;30214;52.246;14.408;2023-07-13T06:22:26;3.65;;;1.80;;
44508;SDS011;30214;52.246;14.408;2023-07-13T06:24:53;3.72;;;1.52;;
44508;SDS011;30214;52.246;14.408;2023-07-13T06:27:20;3.20;;;1.27;;
44508;SDS011;30214;52.246;14.408;2023-07-13T06:29:47;4.05;;;1.50;;
44508;SDS011;30214;52.246;14.408;2023-07-13T06:32:14;4.72;;;1.30;;
44508;SDS011;30214;52.246;14.408;2023-07-13T06:34:41;2.85;;;1.33;;
44508;SDS011;30214;52.246;14.408;2023-07-13T06:37:08;6.05;;;1.30;;
44508;SDS011;30214;52.246;14.408;2023-07-13T06:39:37;2.83;;;1.23;;
44508;SDS011;30214;52.246;14.408;2023-07-13T06:42:04;4.22;;;1.30;;
44508;SDS011;30214;52.246;14.408;2023-07-13T06:44:32;4.13;;;1.40;;
44508;SDS011;30214;52.246;14.408;2023-07-13T06:46:59;3.75;;;1.10;;
44508;SDS011;30214;52.246;14.408;2023-07-13T06:49:26;2.25;;;1.00;;
44508;SDS011;30214;52.246;14.408;2023-07-13T06:51:53;1.92;;;0.93;;
44508;SDS011;30214;52.246;14.408;2023-07-13T06:54:20;3.65;;;1.20;;
44508;SDS011;30214;52.246;14.408;2023-07-13T06:56:48;3.55;;;1.20;;
44508;SDS011;30214;52.246;14.408;2023-07-13T06:59:15;3.22;;;1.20;;
44508;SDS011;30214;52.246;14.408;2023-07-13T07:01:42;3.63;;;1.02;;
44508;SDS011;30214;52.246;14.408;2023-07-13T07:04:09;3.17;;;1.20;;
44508;SDS011;30214;52.246;14.408;2023-07-13T07:06:36;5.93;;;1.38;;
44508;SDS011;30214;52.246;14.408;2023-07-13T07:09:03;4.00;;;1.58;;
44508;SDS011;30214;52.246;14.408;2023-07-13T07:11:30;3.67;;;1.50;;
44508;SDS011;30214;52.246;14.408;2023-07-13T07:13:58;2.60;;;1.27;;
44508;SDS011;30214;52.246;14.408;2023-07-13T07:16:25;7.85;;;1.25;;
44508;SDS011;30214;52.246;14.408;2023-07-13T07:18:52;2.72;;;1.27;;
44508;SDS011;30214;52.246;14.408;2023-07-13T07:21:19;5.28;;;1.50;;
44508;SDS011;30214;52.246;14.408;2023-07-13T07:23:47;3.22;;;1.10;;
44508;SDS011;30214;52.246;14.408;2023-07-13T07:26:15;5.22;;;1.40;;
44508;SDS011;30214;52.246;14.408;2023-07-13T07:28:42;7.28;;;1.42;;
44508;SDS011;30214;52.246;14.408;2023-07-13T07:31:10;4.28;;;1.27;;
44508;SDS011;30214;52.246;14.408;2023-07-13T07:33:37;2.83;;;1.02;;
44508;SDS011;30214;52.246;14.408;2023-07-13T07:36:04;4.78;;;1.42;;
44508;SDS011;30214;52.246;14.408;2023-07-13T07:38:31;3.75;;;1.40;;
44508;SDS011;30214;52.246;14.408;2023-07-13T07:41:01;4.15;;;1.40;;
44508;SDS011;30214;52.246;14.408;2023-07-13T07:43:29;2.63;;;1.10;;
44508;SDS011;30214;52.246;14.408;2023-07-13T07:45:56;6.68;;;1.50;;
44508;SDS011;30214;52.246;14.408;2023-07-13T07:48:24;4.80;;;1.50;;
44508;SDS011;30214;52.246;14.408;2023-07-13T07:50:51;5.80;;;1.40;;
44508;SDS011;30214;52.246;14.408;2023-07-13T07:53:18;5.75;;;1.40;;
44508;SDS011;30214;52.246;14.408;2023-07-13T07:55:45;3.63;;;1.90;;
44508;SDS011;30214;52.246;14.408;2023-07-13T07:58:13;3.88;;;1.42;;
44508;SDS011;30214;52.246;14.408;2023-07-13T08:00:42;3.25;;;1.38;;
44508;SDS011;30214;52.246;14.408;2023-07-13T08:03:09;3.88;;;1.60;;
44508;SDS011;30214;52.246;14.408;2023-07-13T08:05:37;4.07;;;1.52;;
44508;SDS011;30214;52.246;14.408;2023-07-13T08:08:04;2.80;;;1.58;;
44508;SDS011;30214;52.246;14.408;2023-07-13T08:10:31;3.42;;;1.40;;
44508;SDS011;30214;52.246;14.408;2023-07-13T08:12:59;3.22;;;1.40;;
44508;SDS011;30214;52.246;14.408;2023-07-13T08:15:25;2.92;;;1.48;;
44508;SDS011;30214;52.246;14.408;2023-07-13T08:17:53;4.22;;;1.80;;
44508;SDS011;30214;52.246;14.408;2023-07-13T08:20:20;4.32;;;1.88;;
44508;SDS011;30214;52.246;14.408;2023-07-13T08:22:48;3.72;;;1.50;;
44508;SDS011;30214;52.246;14.408;2023-07-13T08:25:15;4.85;;;1.55;;
44508;SDS011;30214;52.246;14.408;2023-07-13T08:27:42;4.03;;;1.45;;
44508;SDS011;30214;52.246;14.408;2023-07-13T08:30:09;5.78;;;1.80;;
44508;SDS011;30214;52.246;14.408;2023-07-13T08:32:37;5.40;;;1.30;;
44508;SDS011;30214;52.246;14.408;2023-07-13T08:35:05;5.53;;;1.50;;
44508;SDS011;30214;52.246;14.408;2023-07-13T08:37:32;6.57;;;1.35;;
44508;SDS011;30214;52.246;14.408;2023-07-13T08:40:01;7.40;;;1.60;;
44508;SDS011;30214;52.246;14.408;2023-07-13T08:42:31;5.05;;;1.88;;
44508;SDS011;30214;52.246;14.408;2023-07-13T08:45:12;8.30;;;1.38;;
44508;SDS011;30214;52.246;14.408;2023-07-13T08:47:47;5.07;;;1.35;;
44508;SDS011;30214;52.246;14.408;2023-07-13T08:50:23;4.32;;;1.40;;
44508;SDS011;30214;52.246;14.408;2023-07-13T08:52:54;3.70;;;1.50;;
44508;SDS011;30214;52.246;14.408;2023-07-13T08:55:25;4.68;;;1.30;;
44508;SDS011;30214;52.246;14.408;2023-07-13T08:57:59;5.80;;;1.67;;
44508;SDS011;30214;52.246;14.408;2023-07-13T09:00:33;5.20;;;1.33;;
44508;SDS011;30214;52.246;14.408;2023-07-13T09:03:06;4.68;;;1.45;;
44508;SDS011;30214;52.246;14.408;2023-07-13T09:05:46;5.65;;;1.52;;
44508;SDS011;30214;52.246;14.408;2023-07-13T09:08:23;4.85;;;1.58;;
44508;SDS011;30214;52.246;14.408;2023-07-13T09:11:08;4.70;;;1.85;;
44508;SDS011;30214;52.246;14.408;2023-07-13T09:13:51;4.93;;;1.60;;
44508;SDS011;30214;52.246;14.408;2023-07-13T09:16:25;4.55;;;1.27;;
44508;SDS011;30214;52.246;14.408;2023-07-13T09:18:56;5.97;;;1.40;;
44508;SDS011;30214;52.246;14.408;2023-07-13T09:21:29;6.30;;;1.75;;
44508;SDS011;30214;52.246;14.408;2023-07-13T09:24:00;3.55;;;1.33;;
44508;SDS011;30214;52.246;14.408;2023-07-13T09:26:40;6.07;;;1.50;;
44508;SDS011;30214;52.246;14.408;2023-07-13T09:29:10;2.92;;;1.17;;
44508;SDS011;30214;52.246;14.408;2023-07-13T09:31:55;8.25;;;1.30;;
44508;SDS011;30214;52.246;14.408;2023-07-13T09:34:27;5.32;;;1.60;;
44508;SDS011;30214;52.246;14.408;2023-07-13T09:36:56;7.85;;;1.60;;
44508;SDS011;30214;52.246;14.408;2023-07-13T09:39:24;4.38;;;1.50;;
44508;SDS011;30214;52.246;14.408;2023-07-13T09:41:57;5.95;;;1.35;;
44508;SDS011;30214;52.246;14.408;2023-07-13T09:44:30;4.35;;;1.50;;
44508;SDS011;30214;52.246;14.408;2023-07-13T09:47:00;7.15;;;1.48;;
44508;SDS011;30214;52.246;14.408;2023-07-13T09:49:29;6.38;;;1.67;;
44508;SDS011;30214;52.246;14.408;2023-07-13T09:52:01;3.75;;;1.40;;
44508;SDS011;30214;52.246;14.408;2023-07-13T09:54:33;5.38;;;1.40;;
44508;SDS011;30214;52.246;14.408;2023-07-13T09:57:12;4.72;;;1.30;;
44508;SDS011;30214;52.246;14.408;2023-07-13T09:59:43;5.38;;;1.35;;
44508;SDS011;30214;52.246;14.408;2023-07-13T10:04:59;5.45;;;1.50;;
44508;SDS011;30214;52.246;14.408;2023-07-13T10:07:29;7.60;;;1.40;;
44508;SDS011;30214;52.246;14.408;2023-07-13T10:09:58;5.28;;;1.35;;
44508;SDS011;30214;52.246;14.408;2023-07-13T10:12:30;5.50;;;1.33;;
44508;SDS011;30214;52.246;14.408;2023-07-13T10:15:03;3.92;;;1.27;;
44508;SDS011;30214;52.246;14.408;2023-07-13T10:17:40;6.18;;;1.33;;
44508;SDS011;30214;52.246;14.408;2023-07-13T10:20:07;6.38;;;1.48;;
44508;SDS011;30214;52.246;14.408;2023-07-13T10:22:39;3.95;;;1.70;;
44508;SDS011;30214;52.246;14.408;2023-07-13T10:25:16;6.32;;;1.58;;
44508;SDS011;30214;52.246;14.408;2023-07-13T10:27:45;6.57;;;1.58;;
44508;SDS011;30214;52.246;14.408;2023-07-13T10:30:15;6.35;;;1.30;;
44508;SDS011;30214;52.246;14.408;2023-07-13T10:32:47;3.28;;;1.50;;
44508;SDS011;30214;52.246;14.408;2023-07-13T10:35:16;4.07;;;1.83;;
44508;SDS011;30214;52.246;14.408;2023-07-13T10:37:48;4.25;;;1.65;;
44508;SDS011;30214;52.246;14.408;2023-07-13T10:40:19;5.53;;;1.77;;
44508;SDS011;30214;52.246;14.408;2023-07-13T10:42:56;4.97;;;1.45;;
44508;SDS011;30214;52.246;14.408;2023-07-13T10:45:30;3.58;;;1.38;;
44508;SDS011;30214;52.246;14.408;2023-07-13T10:48:01;5.10;;;1.50;;
44508;SDS011;30214;52.246;14.408;2023-07-13T10:50:32;6.30;;;1.33;;
44508;SDS011;30214;52.246;14.408;2023-07-13T10:53:03;4.85;;;1.50;;
44508;SDS011;30214;52.246;14.408;2023-07-13T10:56:00;6.20;;;1.35;;
44508;SDS011;30214;52.246;14.408;2023-07-13T10:58:34;4.97;;;1.52;;
44508;SDS011;30214;52.246;14.408;2023-07-13T11:01:06;4.43;;;1.60;;
44508;SDS011;30214;52.246;14.408;2023-07-13T11:03:46;3.17;;;1.25;;
44508;SDS011;30214;52.246;14.408;2023-07-13T11:06:31;4.10;;;1.10;;
44508;SDS011;30214;52.246;14.408;2023-07-13T11:09:17;6.60;;;1.40;;
44508;SDS011;30214;52.246;14.408;2023-07-13T11:11:58;5.43;;;1.40;;
44508;SDS011;30214;52.246;14.408;2023-07-13T11:14:36;3.90;;;1.50;;
44508;SDS011;30214;52.246;14.408;2023-07-13T11:20:19;5.80;;;1.52;;
44508;SDS011;30214;52.246;14.408;2023-07-13T11:23:21;5.85;;;1.60;;
44508;SDS011;30214;52.246;14.408;2023-07-13T11:29:23;4.60;;;1.67;;
44508;SDS011;30214;52.246;14.408;2023-07-13T11:34:57;5.63;;;1.50;;
44508;SDS011;30214;52.246;14.408;2023-07-13T11:37:29;9.55;;;1.40;;
44508;SDS011;30214;52.246;14.408;2023-07-13T11:39:58;3.55;;;1.33;;
44508;SDS011;30214;52.246;14.408;2023-07-13T11:42:27;4.38;;;1.30;;
44508;SDS011;30214;52.246;14.408;2023-07-13T11:44:58;8.00;;;1.88;;
44508;SDS011;30214;52.246;14.408;2023-07-13T11:47:28;4.10;;;1.23;;
44508;SDS011;30214;52.246;14.408;2023-07-13T11:49:58;3.58;;;1.35;;
44508;SDS011;30214;52.246;14.408;2023-07-13T11:52:30;7.47;;;1.40;;
44508;SDS011;30214;52.246;14.408;2023-07-13T11:55:11;8.38;;;1.42;;
44508;SDS011;30214;52.246;14.408;2023-07-13T11:57:44;4.07;;;1.42;;
44508;SDS011;30214;52.246;14.408;2023-07-13T12:00:22;3.00;;;1.17;;
44508;SDS011;30214;52.246;14.408;2023-07-13T12:02:54;6.15;;;1.77;;
44508;SDS011;30214;52.246;14.408;2023-07-13T12:05:24;8.27;;;1.50;;
44508;SDS011;30214;52.246;14.408;2023-07-13T12:07:52;4.20;;;1.50;;
44508;SDS011;30214;52.246;14.408;2023-07-13T12:10:21;5.40;;;1.80;;
44508;SDS011;30214;52.246;14.408;2023-07-13T12:15:23;7.95;;;1.60;;
44508;SDS011;30214;52.246;14.408;2023-07-13T12:17:59;7.40;;;1.60;;
44508;SDS011;30214;52.246;14.408;2023-07-13T12:20:27;4.38;;;1.52;;
44508;SDS011;30214;52.246;14.408;2023-07-13T12:22:57;6.13;;;1.80;;
44508;SDS011;30214;52.246;14.408;2023-07-13T12:25:25;6.38;;;1.60;;
44508;SDS011;30214;52.246;14.408;2023-07-13T12:27:53;4.15;;;1.35;;
44508;SDS011;30214;52.246;14.408;2023-07-13T12:30:23;9.18;;;1.88;;
44508;SDS011;30214;52.246;14.408;2023-07-13T12:33:00;4.30;;;1.42;;
44508;SDS011;30214;52.246;14.408;2023-07-13T12:35:28;4.72;;;1.50;;
44508;SDS011;30214;52.246;14.408;2023-07-13T12:37:58;6.03;;;1.95;;
44508;SDS011;30214;52.246;14.408;2023-07-13T12:40:27;4.43;;;1.45;;
44508;SDS011;30214;52.246;14.408;2023-07-13T12:43:02;3.42;;;1.27;;
44508;SDS011;30214;52.246;14.408;2023-07-13T12:45:32;4.35;;;1.23;;
44508;SDS011;30214;52.246;14.408;2023-07-13T12:48:04;4.20;;;1.40;;
44508;SDS011;30214;52.246;14.408;2023-07-13T12:50:40;5.38;;;1.85;;
44508;SDS011;30214;52.246;14.408;2023-07-13T12:53:09;3.83;;;1.65;;
44508;SDS011;30214;52.246;14.408;2023-07-13T12:55:40;3.88;;;1.55;;
44508;SDS011;30214;52.246;14.408;2023-07-13T12:58:09;5.18;;;1.50;;
44508;SDS011;30214;52.246;14.408;2023-07-13T13:00:47;3.95;;;1.30;;
44508;SDS011;30214;52.246;14.408;2023-07-13T13:03:21;7.28;;;1.48;;
44508;SDS011;30214;52.246;14.408;2023-07-13T13:05:57;8.50;;;1.50;;
44508;SDS011;30214;52.246;14.408;2023-07-13T13:08:28;5.55;;;1.35;;
44508;SDS011;30214;52.246;14.408;2023-07-13T13:10:56;4.70;;;1.35;;
44508;SDS011;30214;52.246;14.408;2023-07-13T13:13:23;5.63;;;1.50;;
44508;SDS011;30214;52.246;14.408;2023-07-13T13:15:50;5.85;;;1.38;;
44508;SDS011;30214;52.246;14.408;2023-07-13T13:18:18;3.45;;;1.45;;
44508;SDS011;30214;52.246;14.408;2023-07-13T13:20:48;5.45;;;1.42;;
44508;SDS011;30214;52.246;14.408;2023-07-13T13:23:17;4.25;;;1.45;;
44508;SDS011;30214;52.246;14.408;2023-07-13T13:25:49;4.18;;;1.30;;
44508;SDS011;30214;52.246;14.408;2023-07-13T13:28:19;7.05;;;1.80;;
44508;SDS011;30214;52.246;14.408;2023-07-13T13:30:48;4.15;;;1.40;;
44508;SDS011;30214;52.246;14.408;2023-07-13T13:33:17;5.30;;;1.55;;
44508;SDS011;30214;52.246;14.408;2023-07-13T13:35:47;7.90;;;1.52;;
44508;SDS011;30214;52.246;14.408;2023-07-13T13:38:15;7.72;;;1.65;;
44508;SDS011;30214;52.246;14.408;2023-07-13T13:40:44;3.63;;;1.38;;
44508;SDS011;30214;52.246;14.408;2023-07-13T13:43:15;5.97;;;1.70;;
44508;SDS011;30214;52.246;14.408;2023-07-13T13:45:43;3.40;;;1.30;;
44508;SDS011;30214;52.246;14.408;2023-07-13T13:48:13;3.53;;;1.40;;
44508;SDS011;30214;52.246;14.408;2023-07-13T13:50:41;4.88;;;1.48;;
44508;SDS011;30214;52.246;14.408;2023-07-13T13:53:11;7.32;;;1.77;;
44508;SDS011;30214;52.246;14.408;2023-07-13T13:55:38;4.47;;;1.48;;
44508;SDS011;30214;52.246;14.408;2023-07-13T13:58:07;4.30;;;1.50;;
44508;SDS011;30214;52.246;14.408;2023-07-13T14:00:35;5.57;;;1.60;;
44508;SDS011;30214;52.246;14.408;2023-07-13T14:03:04;5.90;;;1.70;;
44508;SDS011;30214;52.246;14.408;2023-07-13T14:05:34;6.13;;;1.70;;
44508;SDS011;30214;52.246;14.408;2023-07-13T14:08:01;8.73;;;2.22;;
44508;SDS011;30214;52.246;14.408;2023-07-13T14:10:30;3.95;;;1.50;;
44508;SDS011;30214;52.246;14.408;2023-07-13T14:12:57;5.70;;;1.45;;
44508;SDS011;30214;52.246;14.408;2023-07-13T14:15:24;5.10;;;1.75;;
44508;SDS011;30214;52.246;14.408;2023-07-13T14:17:53;3.47;;;1.55;;
44508;SDS011;30214;52.246;14.408;2023-07-13T14:20:22;3.95;;;1.40;;
44508;SDS011;30214;52.246;14.408;2023-07-13T14:22:50;4.25;;;1.30;;
44508;SDS011;30214;52.246;14.408;2023-07-13T14:25:18;4.53;;;1.40;;
44508;SDS011;30214;52.246;14.408;2023-07-13T14:27:51;6.20;;;1.60;;
44508;SDS011;30214;52.246;14.408;2023-07-13T14:30:29;4.80;;;1.55;;
44508;SDS011;30214;52.246;14.408;2023-07-13T14:32:56;5.88;;;1.83;;
44508;SDS011;30214;52.246;14.408;2023-07-13T14:35:23;3.78;;;1.70;;
44508;SDS011;30214;52.246;14.408;2023-07-13T14:37:50;6.30;;;1.90;;
44508;SDS011;30214;52.246;14.408;2023-07-13T14:40:18;7.30;;;1.63;;
44508;SDS011;30214;52.246;14.408;2023-07-13T14:42:51;4.38;;;1.60;;
44508;SDS011;30214;52.246;14.408;2023-07-13T14:45:18;4.65;;;1.63;;
44508;SDS011;30214;52.246;14.408;2023-07-13T14:47:46;6.47;;;1.67;;
44508;SDS011;30214;52.246;14.408;2023-07-13T14:50:14;6.30;;;1.60;;
44508;SDS011;30214;52.246;14.408;2023-07-13T14:52:43;5.28;;;1.60;;
44508;SDS011;30214;52.246;14.408;2023-07-13T14:55:18;3.65;;;1.52;;
44508;SDS011;30214;52.246;14.408;2023-07-13T14:58:11;4.65;;;1.50;;
44508;SDS011;30214;52.246;14.408;2023-07-13T15:00:39;5.50;;;1.77;;
44508;SDS011;30214;52.246;14.408;2023-07-13T15:03:16;5.15;;;1.50;;
44508;SDS011;30214;52.246;14.408;2023-07-13T15:05:47;6.35;;;1.38;;